createdAt,value
2018-08-10T01:04:57.931Z,96298.39
2018-08-10T01:07:26.627Z,96307.73
2018-08-10T01:09:55.176Z,96307.54
2018-08-10T01:12:23.790Z,96308.34
2018-08-10T01:14:52.361Z,96310.39
2018-08-10T01:17:21.389Z,96312.84
2018-08-10T01:19:49.936Z,96309.59
2018-08-10T01:22:18.529Z,96322.02
2018-08-10T01:24:47.112Z,96328.63
2018-08-10T01:27:20.917Z,96326.63
2018-08-10T01:29:49.654Z,96325.14
2018-08-10T01:32:18.367Z,96329.72
2018-08-10T01:34:46.962Z,96341.70
2018-08-10T01:37:15.642Z,96334.48
2018-08-10T01:39:44.209Z,96332.48
2018-08-10T01:42:12.801Z,96332.84
2018-08-10T01:44:41.389Z,96330.31
2018-08-10T01:47:10.556Z,96329.80
2018-08-10T01:49:39.136Z,96326.66
2018-08-10T01:52:07.770Z,96326.11
2018-08-10T01:54:36.842Z,96329.08
2018-08-10T01:57:05.706Z,96325.45
2018-08-10T01:59:34.320Z,96337.60
2018-08-10T02:02:02.907Z,96342.03
2018-08-10T02:04:31.544Z,96342.00
2018-08-10T02:07:02.701Z,96350.36
2018-08-10T02:09:31.603Z,96341.34
2018-08-10T02:12:00.216Z,96353.39
2018-08-10T02:14:29.002Z,96352.53
2018-08-10T02:16:57.587Z,96359.25
2018-08-10T02:19:26.331Z,96359.27
2018-08-10T02:21:55.052Z,96360.45
2018-08-10T02:24:23.644Z,96370.59
2018-08-10T02:26:52.688Z,96372.14
2018-08-10T02:29:21.324Z,96370.28
2018-08-10T02:31:49.912Z,96372.90
2018-08-10T02:34:18.661Z,96378.80
2018-08-10T02:36:47.239Z,96372.95
2018-08-10T02:39:15.807Z,96382.05
2018-08-10T02:41:44.867Z,96373.44
2018-08-10T02:44:13.493Z,96378.66
2018-08-10T02:46:42.101Z,96378.91
2018-08-10T02:49:10.904Z,96386.21
2018-08-10T02:51:39.849Z,96381.28
2018-08-10T02:54:08.853Z,96386.66
2018-08-10T02:56:37.431Z,96384.96
2018-08-10T02:59:06.115Z,96391.14
2018-08-10T03:01:34.815Z,96402.97
2018-08-10T03:18:15.492Z,96436.63
2018-08-10T03:20:44.154Z,96440.59
2018-08-10T03:23:13.194Z,96443.35
2018-08-10T03:25:41.772Z,96446.27
2018-08-10T03:28:10.399Z,96449.13
2018-08-10T03:30:39.080Z,96452.31
2018-08-10T03:33:07.638Z,96449.64
2018-08-10T03:35:36.179Z,96455.47
2018-08-10T03:38:04.871Z,96455.47
2018-08-10T03:40:33.431Z,96460.79
2018-08-10T03:43:02.030Z,96462.83
2018-08-10T03:45:30.646Z,96466.94
2018-08-10T03:47:59.315Z,96467.86
2018-08-10T03:50:27.920Z,96474.24
2018-08-10T03:52:56.520Z,96472.55
2018-08-10T03:55:25.156Z,96476.23
2018-08-10T03:57:53.751Z,96484.52
2018-08-10T04:00:22.368Z,96480.51
2018-08-10T04:02:51.785Z,96484.95
2018-08-10T04:05:20.352Z,96490.97
2018-08-10T04:07:51.411Z,96495.14
2018-08-10T04:10:20.139Z,96500.75
2018-08-10T04:12:48.696Z,96501.87
2018-08-10T04:20:24.787Z,96512.95
2018-08-10T04:22:53.347Z,96513.08
2018-08-10T04:25:21.941Z,96510.98
2018-08-10T04:27:50.572Z,96514.89
2018-08-10T04:30:19.287Z,96512.66
2018-08-10T04:32:47.880Z,96519.89
2018-08-10T04:35:16.847Z,96523.02
2018-08-10T04:37:45.508Z,96520.88
2018-08-10T04:40:14.117Z,96530.03
2018-08-10T04:42:42.667Z,96524.50
2018-08-10T04:45:11.680Z,96531.14
2018-08-10T04:47:44.529Z,96517.56
2018-08-10T04:50:13.133Z,96526.81
2018-08-10T04:52:41.747Z,96534.50
2018-08-10T04:55:10.782Z,96537.73
2018-08-10T04:57:39.619Z,96533.94
2018-08-10T05:00:11.028Z,96540.22
2018-08-10T05:02:39.707Z,96536.67
2018-08-10T05:27:54.436Z,96559.52
2018-08-10T05:35:39.785Z,96564.08
2018-08-10T05:38:09.340Z,96570.71
2018-08-10T05:54:06.937Z,96572.54
2018-08-10T05:58:02.855Z,96595.10
2018-08-10T06:00:50.876Z,96604.94
2018-08-10T06:09:44.407Z,96604.13
2018-08-10T06:13:53.175Z,96600.22
2018-08-10T06:16:42.008Z,96600.01
2018-08-10T06:22:02.403Z,96611.10
2018-08-10T06:24:31.029Z,96617.45
2018-08-10T06:30:01.001Z,96623.55
2018-08-10T06:32:40.702Z,96626.13
2018-08-10T06:35:09.889Z,96629.00
2018-08-10T06:37:38.743Z,96633.17
2018-08-10T06:40:07.571Z,96635.77
2018-08-10T06:42:36.308Z,96641.61
2018-08-10T06:45:05.176Z,96635.20
2018-08-10T06:47:33.587Z,96637.92
2018-08-10T06:50:02.187Z,96639.04
2018-08-10T06:52:30.760Z,96639.59
2018-08-10T06:54:59.299Z,96642.55
2018-08-10T06:57:27.900Z,96636.81
2018-08-10T06:59:56.453Z,96646.64
2018-08-10T07:25:20.909Z,96645.46
2018-08-10T07:27:49.601Z,96642.75
2018-08-10T07:33:39.421Z,96648.77
2018-08-10T07:50:41.760Z,96652.03
2018-08-10T07:53:10.615Z,96649.89
2018-08-10T07:55:39.284Z,96654.97
2018-08-10T07:58:07.896Z,96650.74
2018-08-10T08:06:08.789Z,96651.30
2018-08-10T08:20:25.904Z,96643.77
2018-08-10T08:23:04.100Z,96657.81
2018-08-10T08:25:32.731Z,96658.80
2018-08-10T08:28:01.665Z,96657.30
2018-08-10T08:30:30.283Z,96659.84
2018-08-10T08:36:10.260Z,96649.33
2018-08-10T08:38:52.664Z,96642.26
2018-08-10T08:41:21.250Z,96640.94
2018-08-10T08:46:05.850Z,96645.86
2018-08-10T08:48:35.767Z,96655.38
2018-08-10T08:51:07.029Z,96659.05
2018-08-10T08:53:35.702Z,96657.02
2018-08-10T08:56:09.771Z,96658.92
2018-08-10T08:58:38.896Z,96658.62
2018-08-10T09:01:08.576Z,96661.05
2018-08-10T09:03:48.169Z,96662.47
2018-08-10T09:06:16.760Z,96666.60
2018-08-10T09:08:57.347Z,96660.42
2018-08-10T09:14:49.914Z,96669.23
2018-08-10T09:47:43.113Z,96650.64
2018-08-10T09:50:48.702Z,96659.95
2018-08-10T09:53:17.304Z,96663.64
2018-08-10T09:55:45.884Z,96670.50
2018-08-10T09:58:20.390Z,96676.14
2018-08-10T10:00:54.976Z,96673.79
2018-08-10T10:03:25.098Z,96673.40
2018-08-10T10:05:55.380Z,96670.37
2018-08-10T10:11:14.164Z,96672.14
2018-08-10T10:13:43.439Z,96664.60
2018-08-10T10:16:11.992Z,96671.76
2018-08-10T10:18:40.763Z,96673.17
2018-08-10T10:21:09.496Z,96671.25
2018-08-10T10:24:08.852Z,96670.33
2018-08-10T10:26:37.708Z,96660.29
2018-08-10T10:29:06.908Z,96663.15
2018-08-10T10:31:35.563Z,96661.41
2018-08-10T10:34:04.412Z,96655.64
2018-08-10T10:36:33.197Z,96653.35
2018-08-10T10:39:02.054Z,96653.81
2018-08-10T10:41:30.663Z,96659.00
2018-08-10T10:43:59.539Z,96655.83
2018-08-10T10:46:28.143Z,96654.41
2018-08-10T10:48:56.724Z,96651.67
2018-08-10T10:51:25.327Z,96650.88
2018-08-10T10:53:53.923Z,96653.75
2018-08-10T10:56:37.447Z,96650.54
2018-08-10T10:59:06.008Z,96651.75
2018-08-10T11:01:34.589Z,96642.50
2018-08-10T11:04:03.248Z,96632.73
2018-08-10T11:06:31.844Z,96634.09
2018-08-10T11:09:00.412Z,96631.78
2018-08-10T11:11:29.384Z,96637.72
2018-08-10T11:13:58.003Z,96630.03
2018-08-10T11:16:26.647Z,96634.77
2018-08-10T11:18:55.403Z,96640.10
2018-08-10T11:21:24.042Z,96636.44
2018-08-10T11:23:52.815Z,96636.18
2018-08-10T11:26:21.396Z,96640.80
2018-08-10T11:28:49.982Z,96637.11
2018-08-10T11:31:18.560Z,96643.41
2018-08-10T11:33:47.237Z,96643.38
2018-08-10T11:36:15.823Z,96643.27
2018-08-10T11:38:44.389Z,96643.91
2018-08-10T11:41:12.956Z,96647.33
2018-08-10T11:43:41.680Z,96652.83
2018-08-10T11:46:10.314Z,96646.96
2018-08-10T11:48:38.876Z,96648.95
2018-08-10T11:51:07.553Z,96647.97
2018-08-10T11:53:36.416Z,96647.47
2018-08-10T11:56:05.066Z,96656.17
2018-08-10T11:58:33.848Z,96652.56
2018-08-10T12:01:02.738Z,96651.52
2018-08-10T12:08:48.759Z,96652.23
2018-08-10T12:28:44.139Z,96639.06
2018-08-10T12:31:17.790Z,96635.45
2018-08-10T12:33:46.344Z,96635.03
2018-08-10T12:36:14.948Z,96636.34
2018-08-10T12:38:43.516Z,96634.64
2018-08-10T12:41:12.122Z,96639.30
2018-08-10T12:59:25.959Z,96632.11
2018-08-10T13:01:54.572Z,96640.11
2018-08-10T13:06:35.351Z,96641.89
2018-08-10T13:09:06.947Z,96642.58
2018-08-10T13:11:35.616Z,96648.86
2018-08-10T13:14:04.253Z,96652.23
2018-08-10T13:16:32.872Z,96648.09
2018-08-10T13:19:01.503Z,96649.97
2018-08-10T13:21:30.179Z,96655.78
2018-08-10T13:23:58.876Z,96667.30
2018-08-10T13:26:27.425Z,96666.22
2018-08-10T13:28:56.128Z,96670.87
2018-08-10T13:31:24.805Z,96676.59
2018-08-10T13:33:53.981Z,96688.58
2018-08-10T13:36:22.587Z,96683.28
2018-08-10T13:38:51.434Z,96684.53
2018-08-10T13:41:20.021Z,96680.06
2018-08-10T13:43:48.627Z,96683.74
2018-08-10T13:46:17.393Z,96685.84
2018-08-10T13:48:46.001Z,96681.75
2018-08-10T13:51:14.580Z,96689.83
2018-08-10T13:53:43.279Z,96688.65
2018-08-10T13:56:11.854Z,96683.06
2018-08-10T13:58:40.501Z,96688.90
2018-08-10T14:01:09.064Z,96684.29
2018-08-10T14:03:39.179Z,96694.59
2018-08-10T14:06:08.632Z,96686.59
2018-08-10T14:08:37.197Z,96697.05
2018-08-10T14:11:05.785Z,96707.42
2018-08-10T14:13:34.377Z,96708.62
2018-08-10T14:16:03.194Z,96711.87
2018-08-10T14:18:31.728Z,96709.16
2018-08-10T14:21:00.698Z,96716.66
2018-08-10T14:23:29.388Z,96712.09
2018-08-10T14:25:57.952Z,96725.98
2018-08-10T14:28:26.652Z,96727.34
2018-08-10T14:30:55.323Z,96734.67
2018-08-10T14:33:23.906Z,96737.78
2018-08-10T14:35:52.545Z,96742.41
2018-08-10T14:38:21.234Z,96745.90
2018-08-10T14:40:49.820Z,96747.73
2018-08-10T14:43:18.406Z,96752.15
2018-08-10T14:45:47.087Z,96750.83
2018-08-10T14:48:16.011Z,96753.95
2018-08-10T14:50:44.571Z,96759.13
2018-08-10T14:53:13.310Z,96753.92
2018-08-10T14:55:42.265Z,96756.03
2018-08-10T14:58:10.868Z,96754.47
2018-08-10T15:00:39.603Z,96752.06
2018-08-10T15:03:08.582Z,96765.12
2018-08-10T15:05:37.798Z,96768.26
2018-08-10T15:08:06.671Z,96772.72
2018-08-10T15:10:35.405Z,96781.54
2018-08-10T15:13:04.213Z,96786.06
2018-08-10T15:15:32.735Z,96785.81
2018-08-10T15:18:01.320Z,96790.84
2018-08-10T15:20:29.922Z,96799.17
2018-08-10T15:22:58.548Z,96796.91
2018-08-10T15:25:27.199Z,96801.31
2018-08-10T15:27:55.852Z,96797.23
2018-08-10T15:30:24.477Z,96796.55
2018-08-10T15:32:53.180Z,96792.13
2018-08-10T15:35:21.820Z,96794.81
2018-08-10T15:37:50.609Z,96801.34
2018-08-10T15:40:20.245Z,96804.10
2018-08-10T15:42:48.853Z,96812.77
2018-08-10T15:45:18.105Z,96814.48
2018-08-10T15:47:47.158Z,96814.48
2018-08-10T15:50:15.812Z,96810.20
2018-08-10T15:52:45.607Z,96813.00
2018-08-10T15:55:14.957Z,96813.68
2018-08-10T15:57:43.618Z,96817.08
2018-08-10T16:00:18.908Z,96830.27
2018-08-10T16:02:48.044Z,96832.88
2018-08-10T16:05:17.505Z,96833.67
2018-08-10T16:07:51.308Z,96822.88
2018-08-10T16:10:19.883Z,96816.31
2018-08-10T16:12:48.630Z,96821.67
2018-08-10T16:15:18.505Z,96822.50
2018-08-10T16:20:59.978Z,96815.56
2018-08-10T16:23:29.160Z,96816.32
2018-08-10T16:25:57.848Z,96816.94
2018-08-10T16:28:26.793Z,96822.41
2018-08-10T16:30:55.435Z,96827.84
2018-08-10T16:33:24.080Z,96825.53
2018-08-10T16:35:53.111Z,96827.34
2018-08-10T16:38:21.748Z,96830.28
2018-08-10T16:40:50.360Z,96825.13
2018-08-10T16:43:18.932Z,96825.25
2018-08-10T16:45:47.497Z,96819.89
2018-08-10T16:48:16.199Z,96815.80
2018-08-10T16:50:44.905Z,96819.22
2018-08-10T16:53:20.255Z,96818.94
2018-08-10T16:55:48.868Z,96811.80
2018-08-10T16:58:17.448Z,96807.78
2018-08-10T17:00:46.086Z,96806.89
2018-08-10T17:03:14.727Z,96810.60
2018-08-10T17:05:43.340Z,96807.50
2018-08-10T17:08:11.937Z,96803.66
2018-08-10T17:10:40.724Z,96801.66
2018-08-10T17:13:09.965Z,96807.30
2018-08-10T17:15:38.752Z,96805.47
2018-08-10T17:18:07.325Z,96806.42
2018-08-10T17:20:35.939Z,96804.01
2018-08-10T17:23:04.616Z,96797.16
2018-08-10T17:25:33.204Z,96792.76
2018-08-10T17:28:01.838Z,96784.67
2018-08-10T17:30:30.616Z,96791.97
2018-08-10T17:32:59.215Z,96798.56
2018-08-10T17:35:28.663Z,96803.91
2018-08-10T17:37:57.239Z,96814.08
2018-08-10T17:40:25.928Z,96815.80
2018-08-10T17:42:54.542Z,96828.20
2018-08-10T17:45:23.243Z,96826.27
2018-08-10T17:47:51.811Z,96827.09
2018-08-10T17:50:21.646Z,96827.24
2018-08-10T17:52:51.653Z,96829.97
2018-08-10T17:55:20.586Z,96831.00
2018-08-10T17:57:49.320Z,96831.47
2018-08-10T18:00:20.705Z,96840.55
2018-08-10T18:02:49.923Z,96833.00
2018-08-10T18:05:19.659Z,96837.16
2018-08-10T18:07:49.144Z,96841.54
2018-08-10T18:10:18.882Z,96847.79
2018-08-10T18:12:47.768Z,96850.67
2018-08-10T18:15:17.746Z,96850.48
2018-08-10T18:17:47.262Z,96858.94
2018-08-10T18:20:18.273Z,96864.69
2018-08-10T18:22:48.155Z,96869.54
2018-08-10T18:25:17.936Z,96755.18
2018-08-10T18:27:47.468Z,96878.77
2018-08-10T18:30:20.144Z,96880.73
2018-08-10T18:32:49.229Z,96880.99
2018-08-10T18:35:17.785Z,96877.87
2018-08-10T18:37:47.182Z,96876.84
2018-08-10T18:40:16.647Z,96887.84
2018-08-10T18:42:46.499Z,96877.92
2018-08-10T18:45:18.476Z,96884.80
2018-08-10T18:47:47.135Z,96884.17
2018-08-10T18:50:16.945Z,96879.59
2018-08-10T18:52:45.763Z,96881.41
2018-08-10T18:55:16.144Z,96882.48
2018-08-10T18:57:44.789Z,96887.72
2018-08-10T19:00:17.488Z,96883.59
2018-08-10T19:02:46.367Z,96893.16
2018-08-10T19:05:16.198Z,96894.75
2018-08-10T19:07:45.656Z,96899.55
2018-08-10T19:10:19.503Z,96896.20
2018-08-10T19:12:48.215Z,96898.89
2018-08-10T19:15:16.819Z,96899.53
2018-08-10T19:17:45.540Z,96907.45
2018-08-10T19:20:14.644Z,96907.47
2018-08-10T19:22:43.330Z,96901.47
2018-08-10T19:25:14.353Z,96889.17
2018-08-10T19:27:42.920Z,96895.83
2018-08-10T19:30:16.916Z,96891.62
2018-08-10T19:32:46.421Z,96888.25
2018-08-10T19:35:15.684Z,96891.35
2018-08-10T19:37:44.487Z,96891.09
2018-08-10T19:40:14.428Z,96887.01
2018-08-10T19:42:43.078Z,96885.05
2018-08-10T19:45:13.151Z,96885.45
2018-08-10T19:47:42.047Z,96888.80
2018-08-10T19:50:14.633Z,96897.50
2018-08-10T19:52:43.331Z,96892.50
2018-08-10T19:55:13.879Z,96894.17
2018-08-10T19:57:42.480Z,96895.27
2018-08-10T20:00:14.122Z,96900.47
2018-08-10T20:02:43.836Z,96896.71
2018-08-10T20:05:15.692Z,96890.99
2018-08-10T20:07:47.730Z,96893.27
2018-08-10T20:10:17.638Z,96906.72
2018-08-10T20:12:46.308Z,96903.84
2018-08-10T20:15:16.342Z,96911.56
2018-08-10T20:17:45.045Z,96903.26
2018-08-10T20:20:15.871Z,96902.12
2018-08-10T20:22:44.880Z,96911.52
2018-08-10T20:25:14.408Z,96907.16
2018-08-10T20:27:43.051Z,96915.69
2018-08-10T20:30:13.664Z,96917.47
2018-08-10T20:32:42.434Z,96914.09
2018-08-10T20:35:13.159Z,96919.25
2018-08-10T20:37:42.383Z,96914.63
2018-08-10T20:40:13.434Z,96910.00
2018-08-10T20:42:42.061Z,96911.45
2018-08-10T20:45:11.520Z,96906.33
2018-08-10T20:47:40.153Z,96900.83
2018-08-10T20:50:12.369Z,96901.08
2018-08-10T20:52:41.273Z,96900.54
2018-08-10T20:55:09.984Z,96904.06
2018-08-10T20:57:38.564Z,96896.71
2018-08-10T21:00:08.264Z,96903.25
2018-08-10T21:02:36.955Z,96907.39
2018-08-10T21:05:06.220Z,96906.80
2018-08-10T21:07:35.312Z,96910.71
2018-08-10T21:10:03.979Z,96903.23
2018-08-10T21:12:32.703Z,96908.78
2018-08-10T21:15:01.304Z,96900.30
2018-08-10T21:17:29.937Z,96895.52
2018-08-10T21:19:58.591Z,96889.60
2018-08-10T21:22:27.185Z,96883.86
2018-08-10T21:24:55.808Z,96890.91
2018-08-10T21:27:24.991Z,96892.27
2018-08-10T21:29:53.574Z,96892.11
2018-08-10T21:32:23.121Z,96897.20
2018-08-10T21:34:52.691Z,96900.32
2018-08-10T21:37:21.465Z,96903.91
2018-08-10T21:39:50.040Z,96908.01
2018-08-10T21:42:18.992Z,96903.52
2018-08-10T21:44:47.563Z,96904.41
2018-08-10T21:47:16.379Z,96907.74
2018-08-10T21:49:45.015Z,96903.95
2018-08-10T21:52:13.701Z,96895.91
2018-08-10T21:54:42.299Z,96893.37
2018-08-10T21:57:11.015Z,96893.22
2018-08-10T21:59:39.615Z,96890.66
2018-08-10T22:02:09.999Z,96894.29
2018-08-10T22:04:38.543Z,96903.33
2018-08-10T22:07:09.914Z,96907.80
2018-08-10T22:09:38.495Z,96907.75
2018-08-10T22:12:07.172Z,96906.34
2018-08-10T22:14:40.962Z,96905.73
